sensor_id;sensor_type;location;lat;lon;timestamp;temperature;humidity
73133;DHT22;61320;52.008;4.530;2023-08-01T00:00:29;17.36;86.76
73133;DHT22;61320;52.008;4.530;2023-08-01T00:02:55;17.36;86.84
73133;DHT22;61320;52.008;4.530;2023-08-01T00:05:20;17.42;86.75
73133;DHT22;61320;52.008;4.530;2023-08-01T00:07:46;17.39;86.60
73133;DHT22;61320;52.008;4.530;2023-08-01T00:10:11;17.41;86.72
73133;DHT22;61320;52.008;4.530;2023-08-01T00:12:36;17.45;86.43
73133;DHT22;61320;52.008;4.530;2023-08-01T00:15:03;17.42;86.82
73133;DHT22;61320;52.008;4.530;2023-08-01T00:17:29;17.45;86.65
73133;DHT22;61320;52.008;4.530;2023-08-01T00:22:20;17.41;86.30
73133;DHT22;61320;52.008;4.530;2023-08-01T00:24:46;17.42;86.60
73133;DHT22;61320;52.008;4.530;2023-08-01T00:27:13;17.43;86.68
73133;DHT22;61320;52.008;4.530;2023-08-01T00:29:39;17.43;86.48
73133;DHT22;61320;52.008;4.530;2023-08-01T00:32:04;17.39;86.36
73133;DHT22;61320;52.008;4.530;2023-08-01T00:34:30;17.38;86.10
73133;DHT22;61320;52.008;4.530;2023-08-01T00:36:56;17.38;86.22
73133;DHT22;61320;52.008;4.530;2023-08-01T00:39:22;17.36;86.29
73133;DHT22;61320;52.008;4.530;2023-08-01T00:41:47;17.36;86.16
73133;DHT22;61320;52.008;4.530;2023-08-01T00:44:13;17.31;86.39
73133;DHT22;61320;52.008;4.530;2023-08-01T00:46:38;17.32;86.21
73133;DHT22;61320;52.008;4.530;2023-08-01T00:49:04;17.28;86.00
73133;DHT22;61320;52.008;4.530;2023-08-01T00:51:31;17.27;86.10
73133;DHT22;61320;52.008;4.530;2023-08-01T00:53:57;17.27;86.02
73133;DHT22;61320;52.008;4.530;2023-08-01T00:56:23;17.30;86.11
73133;DHT22;61320;52.008;4.530;2023-08-01T00:58:49;17.28;86.06
73133;DHT22;61320;52.008;4.530;2023-08-01T01:01:14;17.32;86.19
73133;DHT22;61320;52.008;4.530;2023-08-01T01:03:40;17.31;86.30
73133;DHT22;61320;52.008;4.530;2023-08-01T01:06:13;17.38;86.38
73133;DHT22;61320;52.008;4.530;2023-08-01T01:08:44;17.39;86.33
73133;DHT22;61320;52.008;4.530;2023-08-01T01:11:09;17.42;86.14
73133;DHT22;61320;52.008;4.530;2023-08-01T01:13:35;17.39;86.00
73133;DHT22;61320;52.008;4.530;2023-08-01T01:16:00;17.36;85.87
73133;DHT22;61320;52.008;4.530;2023-08-01T01:18:25;17.39;86.33
73133;DHT22;61320;52.008;4.530;2023-08-01T01:20:51;17.46;86.01
73133;DHT22;61320;52.008;4.530;2023-08-01T01:23:19;17.45;86.32
73133;DHT22;61320;52.008;4.530;2023-08-01T01:25:46;17.48;85.82
73133;DHT22;61320;52.008;4.530;2023-08-01T01:28:13;17.48;85.79
73133;DHT22;61320;52.008;4.530;2023-08-01T01:30:39;17.52;85.49
73133;DHT22;61320;52.008;4.530;2023-08-01T01:33:07;17.53;86.14
73133;DHT22;61320;52.008;4.530;2023-08-01T01:35:34;17.58;85.86
73133;DHT22;61320;52.008;4.530;2023-08-01T01:38:00;17.56;85.94
73133;DHT22;61320;52.008;4.530;2023-08-01T01:40:30;17.56;85.86
73133;DHT22;61320;52.008;4.530;2023-08-01T01:42:56;17.55;85.98
73133;DHT22;61320;52.008;4.530;2023-08-01T01:45:21;17.59;85.28
73133;DHT22;61320;52.008;4.530;2023-08-01T01:47:47;17.59;86.14
73133;DHT22;61320;52.008;4.530;2023-08-01T01:50:12;17.62;85.89
73133;DHT22;61320;52.008;4.530;2023-08-01T01:52:38;17.65;85.68
73133;DHT22;61320;52.008;4.530;2023-08-01T01:55:04;17.63;84.95
73133;DHT22;61320;52.008;4.530;2023-08-01T01:57:29;17.59;85.49
73133;DHT22;61320;52.008;4.530;2023-08-01T01:59:55;17.66;85.85
73133;DHT22;61320;52.008;4.530;2023-08-01T02:04:46;17.69;84.20
73133;DHT22;61320;52.008;4.530;2023-08-01T02:07:12;17.71;84.55
73133;DHT22;61320;52.008;4.530;2023-08-01T02:09:39;17.69;85.32
73133;DHT22;61320;52.008;4.530;2023-08-01T02:12:05;17.72;85.48
73133;DHT22;61320;52.008;4.530;2023-08-01T02:14:30;17.73;85.57
73133;DHT22;61320;52.008;4.530;2023-08-01T02:16:56;17.76;85.30
73133;DHT22;61320;52.008;4.530;2023-08-01T02:19:21;17.76;85.16
73133;DHT22;61320;52.008;4.530;2023-08-01T02:21:47;17.69;85.45
73133;DHT22;61320;52.008;4.530;2023-08-01T02:24:12;17.73;85.19
73133;DHT22;61320;52.008;4.530;2023-08-01T02:26:38;17.76;85.50
73133;DHT22;61320;52.008;4.530;2023-08-01T02:29:03;17.79;85.04
73133;DHT22;61320;52.008;4.530;2023-08-01T02:31:29;17.80;85.21
73133;DHT22;61320;52.008;4.530;2023-08-01T02:33:54;17.78;84.65
73133;DHT22;61320;52.008;4.530;2023-08-01T02:36:20;17.78;85.38
73133;DHT22;61320;52.008;4.530;2023-08-01T02:38:45;17.80;85.00
73133;DHT22;61320;52.008;4.530;2023-08-01T02:41:11;17.79;84.56
73133;DHT22;61320;52.008;4.530;2023-08-01T02:46:02;17.82;85.14
73133;DHT22;61320;52.008;4.530;2023-08-01T02:48:27;17.86;85.02
73133;DHT22;61320;52.008;4.530;2023-08-01T02:50:53;17.83;85.02
73133;DHT22;61320;52.008;4.530;2023-08-01T02:53:18;17.80;84.68
73133;DHT22;61320;52.008;4.530;2023-08-01T02:55:44;17.79;85.15
73133;DHT22;61320;52.008;4.530;2023-08-01T02:58:12;17.80;84.91
73133;DHT22;61320;52.008;4.530;2023-08-01T03:00:38;17.79;84.75
73133;DHT22;61320;52.008;4.530;2023-08-01T03:03:04;17.79;84.85
73133;DHT22;61320;52.008;4.530;2023-08-01T03:05:30;17.80;84.97
73133;DHT22;61320;52.008;4.530;2023-08-01T03:07:55;17.80;85.09
73133;DHT22;61320;52.008;4.530;2023-08-01T03:10:20;17.83;85.02
73133;DHT22;61320;52.008;4.530;2023-08-01T03:12:46;17.82;84.48
73133;DHT22;61320;52.008;4.530;2023-08-01T03:15:11;17.83;85.09
73133;DHT22;61320;52.008;4.530;2023-08-01T03:17:37;17.80;84.95
73133;DHT22;61320;52.008;4.530;2023-08-01T03:20:02;17.83;84.86
73133;DHT22;61320;52.008;4.530;2023-08-01T03:22:28;17.82;84.58
73133;DHT22;61320;52.008;4.530;2023-08-01T03:24:54;17.80;85.01
73133;DHT22;61320;52.008;4.530;2023-08-01T03:27:19;17.79;84.38
73133;DHT22;61320;52.008;4.530;2023-08-01T03:29:45;17.78;84.66
73133;DHT22;61320;52.008;4.530;2023-08-01T03:32:10;17.75;84.94
73133;DHT22;61320;52.008;4.530;2023-08-01T03:34:36;17.69;85.16
73133;DHT22;61320;52.008;4.530;2023-08-01T03:37:02;17.65;85.45
73133;DHT22;61320;52.008;4.530;2023-08-01T03:39:29;17.53;85.75
73133;DHT22;61320;52.008;4.530;2023-08-01T03:41:54;17.46;86.10
73133;DHT22;61320;52.008;4.530;2023-08-01T03:44:19;17.42;86.19
73133;DHT22;61320;52.008;4.530;2023-08-01T03:46:45;17.41;86.37
73133;DHT22;61320;52.008;4.530;2023-08-01T03:49:12;17.36;86.19
73133;DHT22;61320;52.008;4.530;2023-08-01T03:51:38;17.36;86.43
73133;DHT22;61320;52.008;4.530;2023-08-01T03:54:04;17.39;86.40
73133;DHT22;61320;52.008;4.530;2023-08-01T03:56:29;17.35;86.40
73133;DHT22;61320;52.008;4.530;2023-08-01T03:58:55;17.36;86.74
73133;DHT22;61320;52.008;4.530;2023-08-01T04:01:20;17.38;86.75
73133;DHT22;61320;52.008;4.530;2023-08-01T04:03:46;17.42;86.54
73133;DHT22;61320;52.008;4.530;2023-08-01T04:06:12;17.45;86.52
73133;DHT22;61320;52.008;4.530;2023-08-01T04:08:40;17.48;86.50
73133;DHT22;61320;52.008;4.530;2023-08-01T04:11:06;17.48;86.21
73133;DHT22;61320;52.008;4.530;2023-08-01T04:13:31;17.46;86.23
73133;DHT22;61320;52.008;4.530;2023-08-01T04:15:57;17.43;86.24
73133;DHT22;61320;52.008;4.530;2023-08-01T04:18:22;17.46;86.17
73133;DHT22;61320;52.008;4.530;2023-08-01T04:20:48;17.43;85.80
73133;DHT22;61320;52.008;4.530;2023-08-01T04:23:13;17.39;85.93
73133;DHT22;61320;52.008;4.530;2023-08-01T04:25:41;17.35;85.59
73133;DHT22;61320;52.008;4.530;2023-08-01T04:28:07;17.35;85.80
73133;DHT22;61320;52.008;4.530;2023-08-01T04:30:32;17.39;86.16
73133;DHT22;61320;52.008;4.530;2023-08-01T04:40:14;17.36;86.03
73133;DHT22;61320;52.008;4.530;2023-08-01T04:42:40;17.39;85.89
73133;DHT22;61320;52.008;4.530;2023-08-01T04:45:06;17.43;85.26
73133;DHT22;61320;52.008;4.530;2023-08-01T04:47:32;17.38;85.48
73133;DHT22;61320;52.008;4.530;2023-08-01T04:49:58;17.36;85.49
73133;DHT22;61320;52.008;4.530;2023-08-01T04:52:23;17.34;85.35
73133;DHT22;61320;52.008;4.530;2023-08-01T04:54:48;17.39;85.40
73133;DHT22;61320;52.008;4.530;2023-08-01T04:57:14;17.38;85.44
73133;DHT22;61320;52.008;4.530;2023-08-01T04:59:39;17.41;85.15
73133;DHT22;61320;52.008;4.530;2023-08-01T05:02:05;17.38;84.83
73133;DHT22;61320;52.008;4.530;2023-08-01T05:04:30;17.35;84.96
73133;DHT22;61320;52.008;4.530;2023-08-01T05:06:56;17.35;85.02
73133;DHT22;61320;52.008;4.530;2023-08-01T05:09:21;17.39;84.96
73133;DHT22;61320;52.008;4.530;2023-08-01T05:11:47;17.42;85.44
73133;DHT22;61320;52.008;4.530;2023-08-01T05:14:12;17.46;84.96
73133;DHT22;61320;52.008;4.530;2023-08-01T05:16:37;17.45;84.96
73133;DHT22;61320;52.008;4.530;2023-08-01T05:19:03;17.45;85.12
73133;DHT22;61320;52.008;4.530;2023-08-01T05:23:54;17.45;84.80
73133;DHT22;61320;52.008;4.530;2023-08-01T05:31:10;17.49;85.13
73133;DHT22;61320;52.008;4.530;2023-08-01T05:40:51;17.56;84.53
73133;DHT22;61320;52.008;4.530;2023-08-01T05:48:08;17.59;84.08
73133;DHT22;61320;52.008;4.530;2023-08-01T05:50:33;17.61;84.09
73133;DHT22;61320;52.008;4.530;2023-08-01T05:52:59;17.63;84.29
73133;DHT22;61320;52.008;4.530;2023-08-01T05:57:50;17.62;83.82
73133;DHT22;61320;52.008;4.530;2023-08-01T06:02:44;17.69;84.23
73133;DHT22;61320;52.008;4.530;2023-08-01T06:07:35;17.75;84.02
73133;DHT22;61320;52.008;4.530;2023-08-01T06:10:01;17.83;83.70
73133;DHT22;61320;52.008;4.530;2023-08-01T06:12:26;17.92;84.27
73133;DHT22;61320;52.008;4.530;2023-08-01T06:14:52;18.04;84.18
73133;DHT22;61320;52.008;4.530;2023-08-01T06:17:17;18.13;83.77
73133;DHT22;61320;52.008;4.530;2023-08-01T06:19:43;18.18;83.96
73133;DHT22;61320;52.008;4.530;2023-08-01T06:22:08;18.21;82.20
73133;DHT22;61320;52.008;4.530;2023-08-01T06:24:33;18.17;83.31
73133;DHT22;61320;52.008;4.530;2023-08-01T06:27:00;18.16;82.57
73133;DHT22;61320;52.008;4.530;2023-08-01T06:29:25;18.13;83.05
73133;DHT22;61320;52.008;4.530;2023-08-01T06:31:51;18.16;82.81
73133;DHT22;61320;52.008;4.530;2023-08-01T06:34:16;18.21;82.47
73133;DHT22;61320;52.008;4.530;2023-08-01T06:36:42;18.20;82.30
73133;DHT22;61320;52.008;4.530;2023-08-01T06:39:07;18.14;81.45
73133;DHT22;61320;52.008;4.530;2023-08-01T06:41:33;18.10;82.32
73133;DHT22;61320;52.008;4.530;2023-08-01T06:46:24;18.18;83.40
73133;DHT22;61320;52.008;4.530;2023-08-01T06:48:49;18.17;83.25
73133;DHT22;61320;52.008;4.530;2023-08-01T06:51:15;18.16;82.90
73133;DHT22;61320;52.008;4.530;2023-08-01T06:53:40;18.14;82.84
73133;DHT22;61320;52.008;4.530;2023-08-01T06:56:06;18.10;83.49
73133;DHT22;61320;52.008;4.530;2023-08-01T06:58:32;18.14;83.00
73133;DHT22;61320;52.008;4.530;2023-08-01T07:00:57;18.18;83.26
73133;DHT22;61320;52.008;4.530;2023-08-01T07:03:23;18.26;82.74
73133;DHT22;61320;52.008;4.530;2023-08-01T07:05:48;18.31;81.95
73133;DHT22;61320;52.008;4.530;2023-08-01T07:08:14;18.29;82.20
73133;DHT22;61320;52.008;4.530;2023-08-01T07:10:39;18.30;81.48
73133;DHT22;61320;52.008;4.530;2023-08-01T07:13:05;18.27;82.19
73133;DHT22;61320;52.008;4.530;2023-08-01T07:15:31;18.31;82.04
73133;DHT22;61320;52.008;4.530;2023-08-01T07:17:57;18.36;81.87
73133;DHT22;61320;52.008;4.530;2023-08-01T07:20:22;18.45;82.44
73133;DHT22;61320;52.008;4.530;2023-08-01T07:22:48;18.55;82.26
73133;DHT22;61320;52.008;4.530;2023-08-01T07:25:13;18.64;82.42
73133;DHT22;61320;52.008;4.530;2023-08-01T07:27:40;18.65;81.66
73133;DHT22;61320;52.008;4.530;2023-08-01T07:32:31;18.68;80.85
73133;DHT22;61320;52.008;4.530;2023-08-01T07:34:57;18.68;81.99
73133;DHT22;61320;52.008;4.530;2023-08-01T07:44:40;18.95;80.93
73133;DHT22;61320;52.008;4.530;2023-08-01T07:47:05;19.03;81.55
73133;DHT22;61320;52.008;4.530;2023-08-01T07:49:31;19.08;79.83
73133;DHT22;61320;52.008;4.530;2023-08-01T07:51:56;19.10;79.94
73133;DHT22;61320;52.008;4.530;2023-08-01T07:54:21;19.20;80.31
73133;DHT22;61320;52.008;4.530;2023-08-01T07:56:49;19.26;80.71
73133;DHT22;61320;52.008;4.530;2023-08-01T07:59:14;19.23;79.20
73133;DHT22;61320;52.008;4.530;2023-08-01T08:01:40;19.17;78.07
73133;DHT22;61320;52.008;4.530;2023-08-01T08:04:05;19.19;78.98
73133;DHT22;61320;52.008;4.530;2023-08-01T08:06:31;19.12;78.26
73133;DHT22;61320;52.008;4.530;2023-08-01T08:11:22;19.10;78.10
73133;DHT22;61320;52.008;4.530;2023-08-01T08:13:48;19.17;78.18
73133;DHT22;61320;52.008;4.530;2023-08-01T08:16:14;19.26;77.57
73133;DHT22;61320;52.008;4.530;2023-08-01T08:18:39;19.36;79.71
73133;DHT22;61320;52.008;4.530;2023-08-01T08:21:05;19.45;77.64
73133;DHT22;61320;52.008;4.530;2023-08-01T08:23:30;19.50;78.26
73133;DHT22;61320;52.008;4.530;2023-08-01T08:25:56;19.51;78.57
73133;DHT22;61320;52.008;4.530;2023-08-01T08:28:32;19.47;77.70
73133;DHT22;61320;52.008;4.530;2023-08-01T08:30:59;19.34;75.29
73133;DHT22;61320;52.008;4.530;2023-08-01T08:33:25;19.29;77.25
73133;DHT22;61320;52.008;4.530;2023-08-01T08:35:51;19.23;77.89
73133;DHT22;61320;52.008;4.530;2023-08-01T08:38:17;19.19;77.13
73133;DHT22;61320;52.008;4.530;2023-08-01T08:43:18;18.94;77.97
73133;DHT22;61320;52.008;4.530;2023-08-01T08:45:47;18.95;77.52
73133;DHT22;61320;52.008;4.530;2023-08-01T08:48:18;19.08;78.45
73133;DHT22;61320;52.008;4.530;2023-08-01T08:50:46;19.16;76.11
73133;DHT22;61320;52.008;4.530;2023-08-01T08:53:12;19.17;76.57
73133;DHT22;61320;52.008;4.530;2023-08-01T08:55:41;19.27;76.45
73133;DHT22;61320;52.008;4.530;2023-08-01T08:58:08;19.34;76.17
73133;DHT22;61320;52.008;4.530;2023-08-01T09:00:37;19.46;77.14
73133;DHT22;61320;52.008;4.530;2023-08-01T09:03:04;19.64;76.80
73133;DHT22;61320;52.008;4.530;2023-08-01T09:05:48;19.79;76.54
73133;DHT22;61320;52.008;4.530;2023-08-01T09:08:21;19.94;76.06
73133;DHT22;61320;52.008;4.530;2023-08-01T09:10:47;19.95;75.61
73133;DHT22;61320;52.008;4.530;2023-08-01T09:13:13;19.99;75.51
73133;DHT22;61320;52.008;4.530;2023-08-01T09:15:42;19.98;74.62
73133;DHT22;61320;52.008;4.530;2023-08-01T09:18:09;19.91;72.99
73133;DHT22;61320;52.008;4.530;2023-08-01T09:20:45;19.89;73.56
73133;DHT22;61320;52.008;4.530;2023-08-01T09:23:11;19.85;73.83
73133;DHT22;61320;52.008;4.530;2023-08-01T09:25:38;19.84;73.60
73133;DHT22;61320;52.008;4.530;2023-08-01T09:28:18;19.75;72.80
73133;DHT22;61320;52.008;4.530;2023-08-01T09:33:16;19.84;73.89
73133;DHT22;61320;52.008;4.530;2023-08-01T09:35:42;19.82;73.05
73133;DHT22;61320;52.008;4.530;2023-08-01T09:38:11;19.92;73.68
73133;DHT22;61320;52.008;4.530;2023-08-01T09:40:38;20.09;72.67
73133;DHT22;61320;52.008;4.530;2023-08-01T09:43:04;20.25;74.18
73133;DHT22;61320;52.008;4.530;2023-08-01T09:45:29;20.40;71.73
73133;DHT22;61320;52.008;4.530;2023-08-01T09:47:55;20.45;71.67
73133;DHT22;61320;52.008;4.530;2023-08-01T09:50:22;20.47;70.78
73133;DHT22;61320;52.008;4.530;2023-08-01T09:52:48;20.52;71.87
73133;DHT22;61320;52.008;4.530;2023-08-01T09:55:31;20.59;70.21
73133;DHT22;61320;52.008;4.530;2023-08-01T09:57:59;20.66;69.97
73133;DHT22;61320;52.008;4.530;2023-08-01T10:00:28;20.80;71.43
73133;DHT22;61320;52.008;4.530;2023-08-01T10:10:24;20.77;68.71
73133;DHT22;61320;52.008;4.530;2023-08-01T10:15:16;21.30;70.83
73133;DHT22;61320;52.008;4.530;2023-08-01T10:17:42;21.52;67.97
73133;DHT22;61320;52.008;4.530;2023-08-01T10:20:08;21.73;69.15
73133;DHT22;61320;52.008;4.530;2023-08-01T10:22:34;21.73;67.81
73133;DHT22;61320;52.008;4.530;2023-08-01T10:25:01;21.89;67.19
73133;DHT22;61320;52.008;4.530;2023-08-01T10:27:28;22.09;67.82
73133;DHT22;61320;52.008;4.530;2023-08-01T10:29:58;22.30;63.91
73133;DHT22;61320;52.008;4.530;2023-08-01T10:32:39;21.90;66.30
73133;DHT22;61320;52.008;4.530;2023-08-01T10:35:05;21.76;70.79
73133;DHT22;61320;52.008;4.530;2023-08-01T10:37:44;22.25;73.34
73133;DHT22;61320;52.008;4.530;2023-08-01T10:40:12;23.26;67.43
73133;DHT22;61320;52.008;4.530;2023-08-01T10:42:43;24.01;61.35
73133;DHT22;61320;52.008;4.530;2023-08-01T10:45:21;24.77;63.79
73133;DHT22;61320;52.008;4.530;2023-08-01T10:47:48;25.44;58.75
73133;DHT22;61320;52.008;4.530;2023-08-01T10:50:18;24.93;61.37
73133;DHT22;61320;52.008;4.530;2023-08-01T10:52:44;24.29;60.25
73133;DHT22;61320;52.008;4.530;2023-08-01T10:55:10;23.75;60.50
73133;DHT22;61320;52.008;4.530;2023-08-01T10:57:39;24.74;57.87
73133;DHT22;61320;52.008;4.530;2023-08-01T11:00:05;25.85;56.02
73133;DHT22;61320;52.008;4.530;2023-08-01T11:02:37;26.84;54.89
73133;DHT22;61320;52.008;4.530;2023-08-01T11:05:05;26.50;54.90
73133;DHT22;61320;52.008;4.530;2023-08-01T11:07:31;25.97;55.88
73133;DHT22;61320;52.008;4.530;2023-08-01T11:12:38;23.91;59.95
73133;DHT22;61320;52.008;4.530;2023-08-01T11:17:34;23.78;60.02
73133;DHT22;61320;52.008;4.530;2023-08-01T11:20:10;24.29;57.78
73133;DHT22;61320;52.008;4.530;2023-08-01T11:25:15;24.28;58.13
73133;DHT22;61320;52.008;4.530;2023-08-01T11:27:40;25.57;55.84
73133;DHT22;61320;52.008;4.530;2023-08-01T11:30:06;26.55;50.86
73133;DHT22;61320;52.008;4.530;2023-08-01T11:32:34;26.50;50.31
73133;DHT22;61320;52.008;4.530;2023-08-01T11:35:01;26.48;52.78
73133;DHT22;61320;52.008;4.530;2023-08-01T11:37:26;27.49;52.07
73133;DHT22;61320;52.008;4.530;2023-08-01T11:39:53;27.00;48.51
73133;DHT22;61320;52.008;4.530;2023-08-01T11:42:19;27.67;49.56
73133;DHT22;61320;52.008;4.530;2023-08-01T11:44:44;28.55;49.47
73133;DHT22;61320;52.008;4.530;2023-08-01T11:49:36;29.65;47.91
73133;DHT22;61320;52.008;4.530;2023-08-01T11:52:02;28.70;44.36
73133;DHT22;61320;52.008;4.530;2023-08-01T11:54:27;27.57;48.78
73133;DHT22;61320;52.008;4.530;2023-08-01T11:57:00;27.50;51.56
73133;DHT22;61320;52.008;4.530;2023-08-01T11:59:26;27.23;50.10
73133;DHT22;61320;52.008;4.530;2023-08-01T12:01:51;26.54;48.39
73133;DHT22;61320;52.008;4.530;2023-08-01T12:04:25;25.62;53.19
73133;DHT22;61320;52.008;4.530;2023-08-01T12:06:51;24.87;54.21
73133;DHT22;61320;52.008;4.530;2023-08-01T12:09:16;24.19;56.56
73133;DHT22;61320;52.008;4.530;2023-08-01T12:11:41;23.60;56.02
73133;DHT22;61320;52.008;4.530;2023-08-01T12:14:13;23.54;57.22
73133;DHT22;61320;52.008;4.530;2023-08-01T12:16:40;23.67;58.78
73133;DHT22;61320;52.008;4.530;2023-08-01T12:19:07;23.45;58.02
73133;DHT22;61320;52.008;4.530;2023-08-01T12:21:34;22.89;57.87
73133;DHT22;61320;52.008;4.530;2023-08-01T12:26:25;22.34;61.58
73133;DHT22;61320;52.008;4.530;2023-08-01T12:31:18;23.15;56.94
73133;DHT22;61320;52.008;4.530;2023-08-01T12:36:09;23.87;55.28
73133;DHT22;61320;52.008;4.530;2023-08-01T12:38:34;23.61;55.56
73133;DHT22;61320;52.008;4.530;2023-08-01T12:41:01;23.61;56.88
73133;DHT22;61320;52.008;4.530;2023-08-01T12:43:27;24.15;55.20
73133;DHT22;61320;52.008;4.530;2023-08-01T12:45:52;24.35;55.66
73133;DHT22;61320;52.008;4.530;2023-08-01T12:48:18;25.31;51.70
73133;DHT22;61320;52.008;4.530;2023-08-01T12:50:45;25.31;52.70
73133;DHT22;61320;52.008;4.530;2023-08-01T12:53:12;24.98;54.40
73133;DHT22;61320;52.008;4.530;2023-08-01T12:55:37;24.33;53.46
73133;DHT22;61320;52.008;4.530;2023-08-01T12:58:03;23.79;53.95
73133;DHT22;61320;52.008;4.530;2023-08-01T13:00:29;23.67;56.53
73133;DHT22;61320;52.008;4.530;2023-08-01T13:02:56;23.37;55.64
73133;DHT22;61320;52.008;4.530;2023-08-01T13:05:21;23.39;57.76
73133;DHT22;61320;52.008;4.530;2023-08-01T13:07:47;23.50;58.49
73133;DHT22;61320;52.008;4.530;2023-08-01T13:10:12;23.57;57.23
73133;DHT22;61320;52.008;4.530;2023-08-01T13:12:38;23.37;56.74
73133;DHT22;61320;52.008;4.530;2023-08-01T13:15:03;23.20;56.31
73133;DHT22;61320;52.008;4.530;2023-08-01T13:17:30;22.87;57.11
73133;DHT22;61320;52.008;4.530;2023-08-01T13:19:55;22.58;59.14
73133;DHT22;61320;52.008;4.530;2023-08-01T13:24:46;22.23;59.19
73133;DHT22;61320;52.008;4.530;2023-08-01T13:39:22;22.47;61.05
73133;DHT22;61320;52.008;4.530;2023-08-01T13:41:47;22.61;59.19
73133;DHT22;61320;52.008;4.530;2023-08-01T13:44:13;22.40;59.51
73133;DHT22;61320;52.008;4.530;2023-08-01T13:46:38;22.20;59.32
73133;DHT22;61320;52.008;4.530;2023-08-01T13:49:03;22.01;61.25
73133;DHT22;61320;52.008;4.530;2023-08-01T13:53:58;22.01;62.15
73133;DHT22;61320;52.008;4.530;2023-08-01T13:56:24;21.94;61.13
73133;DHT22;61320;52.008;4.530;2023-08-01T13:58:51;21.85;60.91
73133;DHT22;61320;52.008;4.530;2023-08-01T14:01:17;21.75;61.64
73133;DHT22;61320;52.008;4.530;2023-08-01T14:08:37;21.99;61.03
73133;DHT22;61320;52.008;4.530;2023-08-01T14:11:05;22.06;60.90
73133;DHT22;61320;52.008;4.530;2023-08-01T14:13:31;21.85;60.42
73133;DHT22;61320;52.008;4.530;2023-08-01T14:15:56;21.83;61.63
73133;DHT22;61320;52.008;4.530;2023-08-01T14:18:22;21.83;61.39
73133;DHT22;61320;52.008;4.530;2023-08-01T14:20:47;21.80;61.21
73133;DHT22;61320;52.008;4.530;2023-08-01T14:23:13;21.76;61.42
73133;DHT22;61320;52.008;4.530;2023-08-01T14:25:38;21.59;60.96
73133;DHT22;61320;52.008;4.530;2023-08-01T14:28:04;21.41;61.12
73133;DHT22;61320;52.008;4.530;2023-08-01T14:30:30;21.21;61.95
73133;DHT22;61320;52.008;4.530;2023-08-01T14:33:02;21.08;62.77
73133;DHT22;61320;52.008;4.530;2023-08-01T14:35:28;20.94;63.48
73133;DHT22;61320;52.008;4.530;2023-08-01T14:37:53;20.91;64.58
73133;DHT22;61320;52.008;4.530;2023-08-01T14:40:21;20.76;69.86
73133;DHT22;61320;52.008;4.530;2023-08-01T14:42:47;20.19;74.09
73133;DHT22;61320;52.008;4.530;2023-08-01T14:45:12;19.34;76.04
73133;DHT22;61320;52.008;4.530;2023-08-01T14:47:38;18.67;78.57
73133;DHT22;61320;52.008;4.530;2023-08-01T14:52:30;18.23;80.18
73133;DHT22;61320;52.008;4.530;2023-08-01T14:54:57;18.11;80.98
73133;DHT22;61320;52.008;4.530;2023-08-01T14:57:22;18.11;80.70
73133;DHT22;61320;52.008;4.530;2023-08-01T14:59:48;18.06;81.71
73133;DHT22;61320;52.008;4.530;2023-08-01T15:02:14;17.96;82.08
73133;DHT22;61320;52.008;4.530;2023-08-01T15:04:40;18.03;82.66
73133;DHT22;61320;52.008;4.530;2023-08-01T15:07:05;18.11;81.80
73133;DHT22;61320;52.008;4.530;2023-08-01T15:09:31;18.27;81.48
73133;DHT22;61320;52.008;4.530;2023-08-01T15:11:57;18.36;80.49
73133;DHT22;61320;52.008;4.530;2023-08-01T15:14:22;18.48;81.17
73133;DHT22;61320;52.008;4.530;2023-08-01T15:16:49;18.72;81.01
73133;DHT22;61320;52.008;4.530;2023-08-01T15:19:14;18.87;78.10
73133;DHT22;61320;52.008;4.530;2023-08-01T15:21:40;18.92;77.43
73133;DHT22;61320;52.008;4.530;2023-08-01T15:24:05;18.92;76.99
73133;DHT22;61320;52.008;4.530;2023-08-01T15:26:31;18.85;75.98
73133;DHT22;61320;52.008;4.530;2023-08-01T15:28:57;18.92;75.37
73133;DHT22;61320;52.008;4.530;2023-08-01T15:31:22;19.00;75.18
73133;DHT22;61320;52.008;4.530;2023-08-01T15:33:48;19.02;75.16
73133;DHT22;61320;52.008;4.530;2023-08-01T15:36:13;19.08;74.47
73133;DHT22;61320;52.008;4.530;2023-08-01T15:38:39;19.16;74.17
73133;DHT22;61320;52.008;4.530;2023-08-01T15:41:05;19.22;75.31
73133;DHT22;61320;52.008;4.530;2023-08-01T15:43:36;19.29;74.69
73133;DHT22;61320;52.008;4.530;2023-08-01T15:46:04;19.39;74.76
73133;DHT22;61320;52.008;4.530;2023-08-01T15:48:33;19.41;73.16
73133;DHT22;61320;52.008;4.530;2023-08-01T15:50:59;19.51;73.29
73133;DHT22;61320;52.008;4.530;2023-08-01T15:53:24;19.56;73.80
73133;DHT22;61320;52.008;4.530;2023-08-01T15:58:21;19.56;71.35
73133;DHT22;61320;52.008;4.530;2023-08-01T16:00:47;19.56;71.31
73133;DHT22;61320;52.008;4.530;2023-08-01T16:03:12;19.63;73.13
73133;DHT22;61320;52.008;4.530;2023-08-01T16:05:37;19.70;70.88
73133;DHT22;61320;52.008;4.530;2023-08-01T16:08:03;19.66;69.70
73133;DHT22;61320;52.008;4.530;2023-08-01T16:10:29;19.61;69.06
73133;DHT22;61320;52.008;4.530;2023-08-01T16:12:54;19.74;69.86
73133;DHT22;61320;52.008;4.530;2023-08-01T16:15:19;19.84;69.45
73133;DHT22;61320;52.008;4.530;2023-08-01T16:17:45;19.94;69.90
73133;DHT22;61320;52.008;4.530;2023-08-01T16:20:11;19.98;67.90
73133;DHT22;61320;52.008;4.530;2023-08-01T16:22:36;19.99;69.46
73133;DHT22;61320;52.008;4.530;2023-08-01T16:25:02;19.99;69.07
73133;DHT22;61320;52.008;4.530;2023-08-01T16:27:27;20.02;69.22
73133;DHT22;61320;52.008;4.530;2023-08-01T16:29:53;19.94;67.71
73133;DHT22;61320;52.008;4.530;2023-08-01T16:32:18;19.97;69.08
73133;DHT22;61320;52.008;4.530;2023-08-01T16:34:44;19.99;67.55
73133;DHT22;61320;52.008;4.530;2023-08-01T16:37:09;19.98;68.24
73133;DHT22;61320;52.008;4.530;2023-08-01T16:39:35;19.98;66.55
73133;DHT22;61320;52.008;4.530;2023-08-01T16:42:00;19.98;67.10
73133;DHT22;61320;52.008;4.530;2023-08-01T16:44:25;20.04;66.62
73133;DHT22;61320;52.008;4.530;2023-08-01T16:46:51;20.02;65.58
73133;DHT22;61320;52.008;4.530;2023-08-01T16:49:16;20.11;67.53
73133;DHT22;61320;52.008;4.530;2023-08-01T16:51:42;20.24;66.88
73133;DHT22;61320;52.008;4.530;2023-08-01T16:54:07;20.18;66.29
73133;DHT22;61320;52.008;4.530;2023-08-01T16:56:33;20.15;66.36
73133;DHT22;61320;52.008;4.530;2023-08-01T16:58:59;20.16;66.25
73133;DHT22;61320;52.008;4.530;2023-08-01T17:01:25;20.22;65.91
73133;DHT22;61320;52.008;4.530;2023-08-01T17:03:50;20.24;66.15
73133;DHT22;61320;52.008;4.530;2023-08-01T17:06:16;20.19;66.50
73133;DHT22;61320;52.008;4.530;2023-08-01T17:08:41;20.26;66.94
73133;DHT22;61320;52.008;4.530;2023-08-01T17:11:07;20.30;66.44
73133;DHT22;61320;52.008;4.530;2023-08-01T17:13:34;20.32;66.30
73133;DHT22;61320;52.008;4.530;2023-08-01T17:15:59;20.24;65.20
73133;DHT22;61320;52.008;4.530;2023-08-01T17:18:25;20.22;65.60